createdAt,value
2022-10-31T00:00:14.854Z,7.10
2022-10-31T00:01:46.378Z,7.31
2022-10-31T00:03:18.337Z,6.98
2022-10-31T00:04:49.720Z,6.95
2022-10-31T00:06:21.153Z,7.16
2022-10-31T00:07:52.732Z,6.84
2022-10-31T00:09:24.050Z,7.05
2022-10-31T00:10:55.417Z,7.24
2022-10-31T00:12:26.847Z,6.90
2022-10-31T00:13:58.233Z,7.42
2022-10-31T00:15:29.744Z,7.18
2022-10-31T00:17:03.290Z,6.97
2022-10-31T00:18:34.631Z,7.04
2022-10-31T00:20:05.990Z,6.63
2022-10-31T00:21:37.765Z,7.11
2022-10-31T00:23:09.112Z,7.05
2022-10-31T00:24:40.418Z,6.83
2022-10-31T00:26:12.377Z,7.22
2022-10-31T00:27:43.943Z,7.36
2022-10-31T00:29:15.374Z,7.08
2022-10-31T00:30:46.788Z,7.77
2022-10-31T00:32:18.160Z,7.41
2022-10-31T00:33:49.691Z,7.42
2022-10-31T00:35:21.156Z,7.81
2022-10-31T00:36:52.593Z,7.67
2022-10-31T00:38:24.495Z,7.53
2022-10-31T00:39:55.923Z,7.84
2022-10-31T00:41:27.880Z,7.89
2022-10-31T00:42:59.708Z,8.02
2022-10-31T00:44:31.268Z,8.45
2022-10-31T00:46:02.602Z,8.85
2022-10-31T00:47:33.958Z,8.76
2022-10-31T00:49:05.324Z,8.63
2022-10-31T00:50:36.718Z,8.75
2022-10-31T00:52:08.031Z,8.75
2022-10-31T00:53:39.369Z,8.15
2022-10-31T00:55:10.678Z,7.85
2022-10-31T00:56:42.011Z,8.41
2022-10-31T00:59:46.928Z,8.17
2022-10-31T01:01:18.679Z,7.96
2022-10-31T01:02:50.420Z,8.65
2022-10-31T01:04:21.755Z,8.35
2022-10-31T01:05:53.154Z,7.99
2022-10-31T01:07:24.687Z,8.30
2022-10-31T01:08:56.074Z,8.46
2022-10-31T01:10:27.526Z,8.51
2022-10-31T01:11:59.011Z,8.68
2022-10-31T01:13:30.529Z,8.47
2022-10-31T01:15:01.884Z,7.92
2022-10-31T01:16:33.323Z,8.88
2022-10-31T01:18:04.867Z,8.58
2022-10-31T01:19:36.593Z,8.45
2022-10-31T01:21:07.989Z,8.96
2022-10-31T01:22:39.336Z,8.91
2022-10-31T01:24:10.704Z,9.16
2022-10-31T01:25:42.572Z,9.48
2022-10-31T01:27:14.160Z,9.37
2022-10-31T01:28:45.538Z,9.15
2022-10-31T01:30:17.244Z,9.80
2022-10-31T01:31:48.655Z,9.84
2022-10-31T01:33:19.979Z,9.37
2022-10-31T01:34:51.420Z,9.24
2022-10-31T01:36:22.840Z,9.07
2022-10-31T01:37:54.266Z,9.22
2022-10-31T01:39:25.784Z,9.54
2022-10-31T01:40:57.151Z,9.33
2022-10-31T01:42:28.519Z,9.71
2022-10-31T01:43:59.975Z,9.68
2022-10-31T01:45:31.414Z,9.37
2022-10-31T01:47:02.814Z,9.42
2022-10-31T01:48:34.250Z,9.48
2022-10-31T01:50:05.860Z,9.20
2022-10-31T01:51:37.303Z,9.23
2022-10-31T01:53:08.807Z,9.52
2022-10-31T01:54:40.322Z,9.92
2022-10-31T01:56:11.635Z,9.68
2022-10-31T01:57:43.847Z,9.98
2022-10-31T01:59:15.265Z,9.85
2022-10-31T02:00:46.634Z,10.46
2022-10-31T02:02:18.220Z,10.05
2022-10-31T02:03:50.037Z,10.11
2022-10-31T02:05:21.581Z,10.28
2022-10-31T02:06:52.949Z,10.17
2022-10-31T02:08:24.510Z,10.16
2022-10-31T02:09:55.885Z,10.31
2022-10-31T02:11:27.249Z,10.38
2022-10-31T02:12:58.989Z,10.90
2022-10-31T02:14:30.663Z,10.79
2022-10-31T02:16:02.140Z,10.23
2022-10-31T02:17:34.299Z,10.49
2022-10-31T02:19:05.862Z,10.23
2022-10-31T02:20:37.671Z,10.18
2022-10-31T02:22:08.987Z,10.41
2022-10-31T02:23:40.453Z,10.05
2022-10-31T02:25:11.870Z,9.80
2022-10-31T02:26:43.279Z,10.95
2022-10-31T02:28:14.652Z,10.16
2022-10-31T02:29:45.988Z,9.89
2022-10-31T02:31:17.341Z,10.35
2022-10-31T02:32:48.714Z,9.96
2022-10-31T02:34:20.129Z,10.29
2022-10-31T02:35:51.773Z,9.64
2022-10-31T02:37:23.233Z,9.75
2022-10-31T02:38:54.762Z,9.60
2022-10-31T02:40:26.180Z,9.48
2022-10-31T02:41:57.641Z,9.72
2022-10-31T02:43:29.221Z,10.16
2022-10-31T02:45:01.637Z,10.00
2022-10-31T02:46:33.042Z,9.73
2022-10-31T02:48:04.518Z,9.93
2022-10-31T02:49:36.253Z,9.82
2022-10-31T02:51:07.716Z,9.75
2022-10-31T02:52:39.090Z,9.73
2022-10-31T02:54:10.670Z,9.94
2022-10-31T02:55:42.252Z,9.45
2022-10-31T02:57:13.764Z,9.30
2022-10-31T02:58:45.192Z,9.15
2022-10-31T03:00:16.849Z,9.34
2022-10-31T03:01:48.517Z,9.63
2022-10-31T03:03:20.044Z,9.20
2022-10-31T03:04:51.435Z,9.09
2022-10-31T03:06:22.738Z,9.78
2022-10-31T03:07:54.185Z,9.64
2022-10-31T03:09:25.553Z,9.52
2022-10-31T03:10:56.936Z,9.31
2022-10-31T03:12:28.439Z,9.41
2022-10-31T03:13:59.857Z,9.58
2022-10-31T03:15:31.228Z,9.33
2022-10-31T03:17:02.631Z,9.01
2022-10-31T03:18:34.056Z,8.94
2022-10-31T03:20:05.535Z,9.26
2022-10-31T03:21:37.009Z,9.26
2022-10-31T03:23:08.289Z,9.07
2022-10-31T03:24:39.595Z,9.47
2022-10-31T03:26:10.883Z,9.47
2022-10-31T03:27:42.189Z,10.09
2022-10-31T03:29:13.662Z,10.22
2022-10-31T03:30:44.977Z,9.80
2022-10-31T03:32:16.433Z,10.10
2022-10-31T03:33:48.147Z,10.35
2022-10-31T03:35:19.713Z,10.00
2022-10-31T03:36:51.013Z,9.59
2022-10-31T03:38:22.508Z,9.55
2022-10-31T03:39:53.806Z,9.42
2022-10-31T03:41:25.289Z,9.75
2022-10-31T03:42:57.031Z,9.61
2022-10-31T03:44:28.620Z,9.25
2022-10-31T03:46:00.007Z,9.64
2022-10-31T03:47:31.502Z,9.75
2022-10-31T03:49:03.941Z,9.34
2022-10-31T03:50:35.384Z,9.78
2022-10-31T03:52:06.863Z,9.66
2022-10-31T03:53:38.158Z,9.37
2022-10-31T03:55:09.514Z,9.23
2022-10-31T03:56:41.073Z,9.52
2022-10-31T03:58:12.550Z,9.58
2022-10-31T03:59:43.943Z,10.33
2022-10-31T04:01:15.344Z,9.57
2022-10-31T04:02:47.258Z,9.27
2022-10-31T04:04:18.781Z,9.46
2022-10-31T04:05:50.120Z,9.21
2022-10-31T04:07:21.510Z,9.52
2022-10-31T04:08:53.022Z,8.88
2022-10-31T04:10:28.665Z,9.59
2022-10-31T04:12:04.267Z,9.12
2022-10-31T04:13:35.596Z,9.64
2022-10-31T04:15:07.013Z,9.55
2022-10-31T04:16:38.461Z,9.54
2022-10-31T04:18:09.917Z,9.48
2022-10-31T04:19:41.385Z,9.29
2022-10-31T04:21:12.830Z,9.37
2022-10-31T04:22:44.338Z,9.21
2022-10-31T04:24:15.748Z,9.54
2022-10-31T04:25:47.234Z,9.53
2022-10-31T04:27:18.606Z,9.88
2022-10-31T04:28:50.002Z,9.57
2022-10-31T04:30:21.367Z,9.13
2022-10-31T04:31:52.684Z,9.24
2022-10-31T04:33:24.039Z,9.65
2022-10-31T04:34:55.420Z,9.09
2022-10-31T04:36:26.824Z,9.41
2022-10-31T04:37:58.473Z,9.40
2022-10-31T04:39:30.051Z,10.27
2022-10-31T04:41:01.375Z,10.04
2022-10-31T04:42:32.763Z,9.88
2022-10-31T04:44:04.126Z,9.60
2022-10-31T04:45:35.454Z,9.56
2022-10-31T04:47:06.788Z,9.53
2022-10-31T04:48:38.195Z,9.53
2022-10-31T04:50:09.653Z,9.69
2022-10-31T04:51:41.183Z,9.64
2022-10-31T04:53:12.556Z,9.92
2022-10-31T04:54:49.453Z,9.87
2022-10-31T04:56:20.947Z,10.73
2022-10-31T04:57:52.320Z,9.92
2022-10-31T04:59:23.909Z,9.61
2022-10-31T05:00:55.550Z,9.88
2022-10-31T05:02:26.968Z,9.80
2022-10-31T05:03:58.633Z,9.82
2022-10-31T05:05:29.949Z,9.98
2022-10-31T05:07:01.380Z,10.02
2022-10-31T05:08:32.811Z,10.02
2022-10-31T05:10:04.257Z,9.44
2022-10-31T05:11:36.089Z,9.84
2022-10-31T05:13:07.521Z,9.80
2022-10-31T05:14:40.008Z,9.61
2022-10-31T05:16:12.755Z,10.33
2022-10-31T05:17:44.230Z,9.73
2022-10-31T05:19:16.084Z,9.92
2022-10-31T05:20:47.602Z,9.90
2022-10-31T05:22:19.484Z,9.67
2022-10-31T05:23:50.909Z,10.22
2022-10-31T05:25:22.287Z,10.17
2022-10-31T05:26:53.783Z,10.15
2022-10-31T05:28:25.166Z,10.36
2022-10-31T05:29:56.838Z,9.99
2022-10-31T05:31:29.337Z,9.94
2022-10-31T05:33:01.041Z,10.47
2022-10-31T05:34:33.208Z,9.99
2022-10-31T05:36:04.794Z,9.96
2022-10-31T05:37:36.479Z,9.80
2022-10-31T05:39:07.846Z,10.18
2022-10-31T05:40:39.415Z,10.36
2022-10-31T05:42:10.805Z,10.41
2022-10-31T05:43:42.244Z,10.27
2022-10-31T05:45:13.763Z,10.46
2022-10-31T05:46:45.224Z,10.25
2022-10-31T05:48:16.857Z,10.17
2022-10-31T05:49:48.174Z,10.79
2022-10-31T05:51:20.031Z,10.71
2022-10-31T05:52:51.522Z,9.73
2022-10-31T05:54:22.934Z,10.60
2022-10-31T05:55:54.449Z,10.00
2022-10-31T05:57:25.814Z,10.39
2022-10-31T05:58:57.204Z,10.54
2022-10-31T06:00:28.536Z,10.22
2022-10-31T06:01:59.981Z,10.34
2022-10-31T06:03:31.412Z,10.16
2022-10-31T06:05:03.030Z,10.25
2022-10-31T06:06:34.497Z,9.79
2022-10-31T06:08:05.934Z,10.12
2022-10-31T06:09:42.422Z,10.08
2022-10-31T06:11:13.707Z,10.12
2022-10-31T06:12:45.142Z,10.32
2022-10-31T06:14:16.653Z,9.72
2022-10-31T06:15:48.229Z,10.04
2022-10-31T06:17:24.623Z,10.45
2022-10-31T06:18:56.023Z,10.07
2022-10-31T06:20:27.619Z,10.28
2022-10-31T06:21:58.991Z,10.55
2022-10-31T06:25:21.684Z,11.06
2022-10-31T06:26:53.058Z,10.63
2022-10-31T06:28:24.462Z,10.53
2022-10-31T06:29:55.836Z,10.65
2022-10-31T06:31:27.159Z,10.61
2022-10-31T06:32:58.802Z,10.70
2022-10-31T06:34:30.564Z,11.00
2022-10-31T06:36:02.040Z,10.73
2022-10-31T06:37:33.370Z,10.83
2022-10-31T06:39:04.726Z,11.36
2022-10-31T06:40:36.077Z,11.90
2022-10-31T06:42:07.732Z,11.19
2022-10-31T06:43:39.047Z,11.06
2022-10-31T06:45:10.340Z,11.57
2022-10-31T06:46:41.652Z,11.36
2022-10-31T06:48:17.900Z,11.56
2022-10-31T06:49:49.935Z,12.07
2022-10-31T06:51:36.872Z,11.62
2022-10-31T06:55:01.632Z,12.28
2022-10-31T06:56:55.305Z,12.76
2022-10-31T06:58:27.129Z,12.37
2022-10-31T06:59:58.733Z,12.25
2022-10-31T07:01:30.461Z,11.96
2022-10-31T07:03:02.277Z,12.55
2022-10-31T07:04:34.143Z,12.88
2022-10-31T07:06:05.825Z,12.08
2022-10-31T07:08:12.363Z,12.22
2022-10-31T07:09:43.701Z,12.33
2022-10-31T07:11:15.091Z,12.44
2022-10-31T07:12:46.823Z,12.57
2022-10-31T07:14:18.427Z,12.78
2022-10-31T07:15:49.973Z,13.15
2022-10-31T07:17:23.035Z,13.15
2022-10-31T07:19:01.199Z,12.84
2022-10-31T07:20:32.888Z,13.54
2022-10-31T07:22:04.554Z,12.97
2022-10-31T07:23:35.992Z,12.80
2022-10-31T07:25:07.472Z,12.84
2022-10-31T07:26:38.785Z,13.14
2022-10-31T07:28:10.161Z,12.88
2022-10-31T07:29:41.972Z,12.96
2022-10-31T07:31:13.538Z,12.47
2022-10-31T07:32:44.870Z,12.34
2022-10-31T07:34:16.169Z,12.26
2022-10-31T07:35:47.538Z,12.72
2022-10-31T07:37:18.964Z,12.24
2022-10-31T07:38:50.273Z,12.07
2022-10-31T07:40:21.569Z,12.75
2022-10-31T07:41:53.197Z,12.64
2022-10-31T07:43:29.600Z,12.33
2022-10-31T07:45:01.195Z,12.15
2022-10-31T07:46:32.597Z,11.91
2022-10-31T07:48:03.964Z,11.30
2022-10-31T07:49:35.279Z,11.17
2022-10-31T07:51:06.549Z,11.21
2022-10-31T07:53:04.138Z,11.42
2022-10-31T07:54:35.544Z,12.09
2022-10-31T07:56:07.179Z,11.38
2022-10-31T07:57:38.591Z,11.84
2022-10-31T07:59:09.969Z,11.96
2022-10-31T08:00:41.427Z,11.54
2022-10-31T08:02:12.949Z,11.94
2022-10-31T08:03:44.423Z,12.08
2022-10-31T08:05:15.797Z,11.93
2022-10-31T08:06:47.358Z,11.93
2022-10-31T08:08:18.772Z,12.27
2022-10-31T08:10:15.207Z,11.95
2022-10-31T08:11:46.500Z,12.07
2022-10-31T08:13:17.901Z,11.94
2022-10-31T08:14:49.334Z,11.79
2022-10-31T08:16:20.635Z,12.07
2022-10-31T08:18:12.094Z,11.72
2022-10-31T08:19:43.578Z,11.73
2022-10-31T08:21:15.152Z,12.09
2022-10-31T08:22:46.543Z,12.00
2022-10-31T08:24:17.935Z,12.63
2022-10-31T08:25:49.443Z,12.84
2022-10-31T08:27:20.841Z,12.22
2022-10-31T08:28:52.398Z,12.03
2022-10-31T08:30:23.763Z,12.51
2022-10-31T08:31:55.106Z,12.40
2022-10-31T08:33:26.471Z,12.39
2022-10-31T08:34:57.980Z,12.91
2022-10-31T08:36:29.445Z,12.07
2022-10-31T08:38:01.336Z,11.81
2022-10-31T08:39:32.902Z,12.84
2022-10-31T08:41:04.468Z,11.88
2022-10-31T08:42:35.777Z,13.10
2022-10-31T08:44:07.068Z,12.39
2022-10-31T08:45:38.494Z,11.97
2022-10-31T08:47:09.770Z,12.58
2022-10-31T08:48:41.110Z,12.28
2022-10-31T08:50:12.474Z,12.89
2022-10-31T08:51:43.900Z,13.11
2022-10-31T08:53:15.268Z,12.75
2022-10-31T08:54:46.649Z,13.53
2022-10-31T08:56:18.234Z,12.83
2022-10-31T08:57:54.690Z,13.32
2022-10-31T08:59:26.134Z,13.41
2022-10-31T09:00:57.619Z,13.43
2022-10-31T09:02:50.729Z,13.77
2022-10-31T09:04:23.199Z,14.48
2022-10-31T09:05:54.752Z,14.13
2022-10-31T09:07:26.268Z,14.32
2022-10-31T09:08:57.633Z,15.29
2022-10-31T09:10:29.034Z,15.04
2022-10-31T09:12:00.403Z,15.05
2022-10-31T09:13:32.095Z,15.67
2022-10-31T09:15:03.397Z,15.91
2022-10-31T09:16:34.758Z,15.51
2022-10-31T09:18:06.170Z,14.59
2022-10-31T09:19:37.524Z,13.63
2022-10-31T09:21:08.942Z,13.93
2022-10-31T09:22:40.317Z,13.98
2022-10-31T09:24:11.720Z,13.62
2022-10-31T09:25:49.142Z,13.79
2022-10-31T09:27:21.613Z,13.50
2022-10-31T09:28:53.140Z,14.22
2022-10-31T09:30:24.500Z,13.57
2022-10-31T09:31:55.919Z,14.24
2022-10-31T09:33:27.342Z,14.73
2022-10-31T09:34:58.731Z,13.64
2022-10-31T09:36:30.089Z,13.68
2022-10-31T09:38:02.020Z,13.54
2022-10-31T09:39:33.555Z,13.54
2022-10-31T09:41:05.269Z,13.26
2022-10-31T09:42:36.597Z,13.08
2022-10-31T09:44:07.908Z,12.96
2022-10-31T09:45:39.314Z,12.66
2022-10-31T09:47:11.159Z,12.87
2022-10-31T09:48:42.801Z,12.41
2022-10-31T09:50:14.153Z,13.60
2022-10-31T09:51:49.174Z,13.15
2022-10-31T09:53:24.130Z,13.31
2022-10-31T09:54:55.558Z,12.98
2022-10-31T09:56:32.182Z,12.72
2022-10-31T09:58:03.472Z,13.03
2022-10-31T09:59:35.170Z,12.68
2022-10-31T10:01:06.806Z,13.19
2022-10-31T10:02:38.698Z,12.97
2022-10-31T10:04:10.299Z,12.78
2022-10-31T10:05:41.656Z,12.92
2022-10-31T10:07:12.985Z,12.72
2022-10-31T10:08:44.425Z,13.18
2022-10-31T10:10:15.880Z,13.19
2022-10-31T10:11:47.433Z,14.37
2022-10-31T10:13:18.943Z,13.69
2022-10-31T10:14:50.398Z,13.52
2022-10-31T10:16:21.821Z,13.82
2022-10-31T10:17:53.200Z,12.89
2022-10-31T10:19:24.732Z,12.70
2022-10-31T10:20:56.096Z,13.12
2022-10-31T10:22:27.502Z,12.92
2022-10-31T10:23:58.836Z,13.33
2022-10-31T10:25:30.243Z,13.34
2022-10-31T10:27:01.667Z,13.41
2022-10-31T10:28:33.024Z,12.94
2022-10-31T10:30:04.341Z,13.13
2022-10-31T10:31:35.832Z,13.55
2022-10-31T10:33:07.227Z,12.62
2022-10-31T10:34:38.719Z,13.12
2022-10-31T10:36:10.059Z,13.09
2022-10-31T10:37:41.420Z,13.64
2022-10-31T10:39:12.746Z,13.93
2022-10-31T10:40:44.318Z,13.01
2022-10-31T10:42:15.771Z,12.74
2022-10-31T10:45:18.685Z,13.00
2022-10-31T10:46:50.091Z,13.13
2022-10-31T10:48:21.533Z,12.61
2022-10-31T10:49:52.871Z,13.30
2022-10-31T10:51:38.908Z,13.06
2022-10-31T10:53:23.600Z,12.56
2022-10-31T10:54:54.951Z,12.50
2022-10-31T10:56:27.298Z,12.22
2022-10-31T10:57:59.088Z,12.36
2022-10-31T10:59:35.781Z,12.09
2022-10-31T11:01:07.429Z,12.23
2022-10-31T11:02:39.121Z,11.33
2022-10-31T11:04:10.519Z,11.99
2022-10-31T11:05:41.964Z,11.47
2022-10-31T11:07:13.797Z,11.55
2022-10-31T11:08:45.198Z,11.99
2022-10-31T11:10:16.575Z,11.25
2022-10-31T11:11:47.930Z,11.67
2022-10-31T11:13:19.324Z,11.46
2022-10-31T11:14:50.701Z,10.65
2022-10-31T11:16:22.199Z,11.20
2022-10-31T11:17:53.566Z,10.83
2022-10-31T11:19:24.961Z,10.24
2022-10-31T11:20:56.344Z,10.23
2022-10-31T11:22:27.738Z,10.01
2022-10-31T11:23:59.129Z,9.72
2022-10-31T11:25:30.535Z,10.05
2022-10-31T11:27:01.931Z,10.24
2022-10-31T11:28:33.446Z,9.19
2022-10-31T11:30:04.978Z,8.93
2022-10-31T11:31:36.408Z,8.90
2022-10-31T11:33:07.761Z,8.58
2022-10-31T11:34:39.208Z,8.93
2022-10-31T11:36:10.633Z,9.42
2022-10-31T11:37:42.094Z,9.20
2022-10-31T11:39:13.693Z,9.36
2022-10-31T11:40:45.184Z,9.28
2022-10-31T11:42:16.618Z,9.34
2022-10-31T11:43:48.000Z,8.98
2022-10-31T11:45:19.544Z,8.80
2022-10-31T11:46:56.037Z,8.60
2022-10-31T11:48:27.440Z,8.75
2022-10-31T11:49:58.836Z,9.14
2022-10-31T11:51:30.362Z,8.56
2022-10-31T11:53:02.063Z,9.26
2022-10-31T11:54:33.482Z,8.59
2022-10-31T11:56:04.862Z,8.23
2022-10-31T11:57:36.349Z,8.13
2022-10-31T11:59:08.051Z,7.40
2022-10-31T12:00:39.609Z,7.26
2022-10-31T12:02:11.150Z,7.16
2022-10-31T12:03:42.734Z,6.95
2022-10-31T12:05:14.196Z,6.91
2022-10-31T12:06:45.630Z,6.31
2022-10-31T12:08:17.028Z,6.96
2022-10-31T12:09:48.561Z,6.52
2022-10-31T12:11:20.104Z,6.31
2022-10-31T12:12:51.513Z,6.35
2022-10-31T12:14:24.136Z,6.73
2022-10-31T12:16:32.461Z,6.48
2022-10-31T12:18:03.824Z,6.84
2022-10-31T12:19:35.269Z,6.87
2022-10-31T12:21:06.621Z,8.58
2022-10-31T12:22:38.028Z,9.03
2022-10-31T12:24:09.411Z,6.99
2022-10-31T12:25:41.084Z,6.68
2022-10-31T12:27:17.673Z,6.43
2022-10-31T12:28:59.184Z,6.18
2022-10-31T12:30:35.926Z,6.48
2022-10-31T12:34:34.276Z,6.56
2022-10-31T12:36:06.330Z,6.43
2022-10-31T12:37:39.113Z,6.30
2022-10-31T12:39:10.478Z,6.10
2022-10-31T12:40:42.016Z,6.06
2022-10-31T12:42:13.528Z,6.53
2022-10-31T12:43:44.944Z,6.48
2022-10-31T12:45:16.573Z,6.97
2022-10-31T12:46:48.079Z,6.47
2022-10-31T12:48:19.688Z,6.58
2022-10-31T12:49:51.104Z,6.82
2022-10-31T12:51:22.525Z,6.64
2022-10-31T12:52:54.253Z,6.74
2022-10-31T12:54:25.865Z,6.84
2022-10-31T12:55:57.258Z,6.89
2022-10-31T12:57:28.963Z,8.37
2022-10-31T12:59:00.403Z,9.66
2022-10-31T13:00:31.873Z,8.41
2022-10-31T13:02:03.557Z,8.18
2022-10-31T13:03:35.141Z,7.58
2022-10-31T13:05:06.716Z,7.82
2022-10-31T13:06:43.466Z,7.69
2022-10-31T13:08:16.140Z,7.01
2022-10-31T13:09:47.539Z,6.74
2022-10-31T13:11:18.950Z,6.57
2022-10-31T13:12:50.502Z,7.18
2022-10-31T13:14:21.948Z,7.38
2022-10-31T13:15:53.393Z,8.43
2022-10-31T13:17:29.906Z,9.40
2022-10-31T13:19:01.316Z,8.88
2022-10-31T13:20:32.726Z,9.06
2022-10-31T13:22:04.274Z,7.11
2022-10-31T13:23:50.448Z,7.08
2022-10-31T13:25:22.708Z,7.28
2022-10-31T13:26:54.188Z,7.65
2022-10-31T13:28:25.769Z,7.24
2022-10-31T13:29:57.293Z,7.54
2022-10-31T13:31:28.920Z,6.98
2022-10-31T13:33:00.790Z,6.90
2022-10-31T13:34:32.527Z,6.73
2022-10-31T13:36:04.083Z,6.81
2022-10-31T13:37:35.596Z,8.07
2022-10-31T13:39:07.034Z,10.81
2022-10-31T13:40:38.555Z,10.96
2022-10-31T13:42:09.952Z,9.18
2022-10-31T13:43:41.378Z,8.50
2022-10-31T13:45:13.043Z,12.00
2022-10-31T13:46:44.583Z,9.48
2022-10-31T13:48:16.333Z,7.17
2022-10-31T13:49:47.851Z,6.92
2022-10-31T13:51:19.250Z,6.83
2022-10-31T13:52:50.666Z,7.18
2022-10-31T13:54:22.246Z,6.71
2022-10-31T13:55:53.644Z,6.65
2022-10-31T13:57:27.129Z,7.22
2022-10-31T13:59:01.767Z,6.34
2022-10-31T14:00:33.198Z,6.73
2022-10-31T14:02:04.766Z,6.74
2022-10-31T14:04:03.284Z,6.25
2022-10-31T14:05:39.168Z,6.39
2022-10-31T14:07:10.647Z,6.27
2022-10-31T14:08:42.189Z,6.51
2022-10-31T14:10:13.567Z,6.66
2022-10-31T14:11:45.010Z,6.78
2022-10-31T14:13:16.585Z,7.03
2022-10-31T14:14:48.106Z,5.95
2022-10-31T14:16:19.645Z,6.10
2022-10-31T14:17:51.196Z,6.55
2022-10-31T14:19:22.816Z,6.17
2022-10-31T14:20:54.323Z,6.52
2022-10-31T14:22:25.789Z,6.07
2022-10-31T14:23:57.190Z,5.89
2022-10-31T14:25:28.605Z,5.99
2022-10-31T14:27:00.091Z,6.20
2022-10-31T14:28:31.485Z,5.97
2022-10-31T14:30:03.018Z,6.02
2022-10-31T14:31:34.485Z,5.96
2022-10-31T14:33:05.911Z,6.13
2022-10-31T14:34:37.647Z,6.27
2022-10-31T14:36:09.116Z,5.87
2022-10-31T14:37:40.795Z,5.95
2022-10-31T14:39:12.267Z,6.27
2022-10-31T14:40:44.843Z,5.92
2022-10-31T14:42:16.321Z,6.26
2022-10-31T14:43:47.844Z,6.09
2022-10-31T14:45:19.460Z,6.64
2022-10-31T14:46:51.050Z,6.19
2022-10-31T14:48:22.599Z,6.61
2022-10-31T14:49:54.161Z,6.48
2022-10-31T14:51:25.753Z,6.43
2022-10-31T14:52:57.496Z,6.28
2022-10-31T14:54:29.283Z,5.99
2022-10-31T14:56:21.969Z,5.94
2022-10-31T14:57:53.440Z,6.49
2022-10-31T14:59:24.892Z,6.48
2022-10-31T15:00:56.637Z,6.29
2022-10-31T15:02:28.651Z,6.08
2022-10-31T15:04:24.342Z,5.71
2022-10-31T15:06:26.471Z,5.85
2022-10-31T15:07:57.872Z,5.67
2022-10-31T15:09:29.471Z,5.81
2022-10-31T15:11:01.003Z,6.21
2022-10-31T15:12:32.427Z,5.98
2022-10-31T15:14:04.426Z,6.20
2022-10-31T15:15:36.047Z,5.73
2022-10-31T15:17:07.520Z,5.82
2022-10-31T15:18:38.913Z,5.87
2022-10-31T15:20:10.314Z,5.90
2022-10-31T15:23:38.042Z,5.86
2022-10-31T15:25:09.421Z,5.91
2022-10-31T15:26:40.971Z,5.57
2022-10-31T15:28:12.430Z,6.29
2022-10-31T15:29:43.861Z,6.62
2022-10-31T15:31:15.349Z,6.57
2022-10-31T15:32:57.213Z,6.23
2022-10-31T15:34:29.238Z,6.73
2022-10-31T15:36:00.648Z,6.53
2022-10-31T15:37:32.033Z,6.25
2022-10-31T15:39:03.469Z,6.71
2022-10-31T15:40:35.175Z,6.90
2022-10-31T15:42:06.544Z,6.76
2022-10-31T15:43:37.949Z,7.09
2022-10-31T15:45:10.521Z,6.70
2022-10-31T15:46:41.990Z,7.20
2022-10-31T15:48:13.345Z,7.45
2022-10-31T15:49:44.778Z,7.18
2022-10-31T15:51:16.217Z,7.59
2022-10-31T15:52:48.508Z,7.45
2022-10-31T15:54:20.206Z,7.84
2022-10-31T15:55:51.681Z,7.32
2022-10-31T15:57:23.072Z,7.28
2022-10-31T15:58:55.791Z,7.27
2022-10-31T16:00:27.233Z,7.19
2022-10-31T16:02:02.441Z,7.02
2022-10-31T16:03:34.384Z,7.16
2022-10-31T16:05:10.829Z,7.34
2022-10-31T16:06:42.432Z,6.88
2022-10-31T16:08:13.889Z,6.85
2022-10-31T16:09:50.363Z,6.93
2022-10-31T16:11:21.794Z,7.17
2022-10-31T16:12:53.209Z,7.07
2022-10-31T16:14:25.771Z,7.19
2022-10-31T16:16:21.249Z,7.76
2022-10-31T16:18:04.760Z,7.34
2022-10-31T16:19:36.173Z,7.21
2022-10-31T16:21:07.688Z,7.04
2022-10-31T16:22:39.178Z,7.05
2022-10-31T16:24:10.628Z,6.84
2022-10-31T16:25:42.038Z,6.74
2022-10-31T16:27:13.417Z,6.50
2022-10-31T16:28:48.796Z,6.85
2022-10-31T16:30:20.261Z,6.59
2022-10-31T16:31:51.801Z,6.26
2022-10-31T16:33:24.354Z,6.97
2022-10-31T16:34:55.726Z,6.96
2022-10-31T16:36:34.875Z,6.56
2022-10-31T16:38:17.704Z,6.89
2022-10-31T16:39:49.239Z,6.77
2022-10-31T16:41:20.668Z,6.95
2022-10-31T16:42:57.393Z,6.98
2022-10-31T16:44:28.975Z,7.37
2022-10-31T16:46:00.322Z,7.02
2022-10-31T16:47:31.788Z,6.44
2022-10-31T16:49:03.112Z,7.25
2022-10-31T16:50:34.505Z,7.16
2022-10-31T16:52:06.142Z,6.50
2022-10-31T16:53:39.656Z,6.48
2022-10-31T16:55:13.122Z,6.73
2022-10-31T16:56:44.543Z,5.84
2022-10-31T16:58:16.270Z,6.65
2022-10-31T16:59:47.849Z,6.28
2022-10-31T17:01:19.404Z,6.37
2022-10-31T17:02:50.824Z,7.19
2022-10-31T17:04:22.408Z,6.51
2022-10-31T17:05:53.956Z,6.61
2022-10-31T17:07:25.375Z,6.12
2022-10-31T17:08:57.063Z,5.51
2022-10-31T17:10:28.590Z,5.56
2022-10-31T17:12:00.059Z,6.84
2022-10-31T17:13:31.557Z,7.12
2022-10-31T17:15:03.206Z,7.32
2022-10-31T17:16:34.546Z,6.72
2022-10-31T17:18:05.960Z,6.60
2022-10-31T17:19:58.321Z,5.63
2022-10-31T17:21:29.917Z,6.11
2022-10-31T17:23:01.560Z,6.17
2022-10-31T17:24:33.548Z,6.31
2022-10-31T17:26:05.166Z,5.82
2022-10-31T17:28:36.796Z,5.37
2022-10-31T17:30:08.824Z,4.98
2022-10-31T17:31:40.285Z,5.61
2022-10-31T17:33:11.651Z,5.36
2022-10-31T17:34:43.020Z,4.70
2022-10-31T17:36:14.347Z,4.89
2022-10-31T17:37:45.724Z,4.24
2022-10-31T17:39:17.072Z,4.67
2022-10-31T17:42:36.587Z,4.19
2022-10-31T17:44:09.104Z,3.77
2022-10-31T17:45:41.451Z,4.03
2022-10-31T17:50:07.781Z,4.00
2022-10-31T17:52:14.553Z,4.06
2022-10-31T17:53:47.302Z,3.57
2022-10-31T17:55:19.602Z,3.62
2022-10-31T17:56:52.162Z,3.94
2022-10-31T17:58:24.782Z,3.73
2022-10-31T17:59:57.473Z,3.72
2022-10-31T18:01:29.576Z,4.15
2022-10-31T18:03:02.676Z,4.48
2022-10-31T18:04:35.652Z,4.38
2022-10-31T18:06:10.284Z,4.26
2022-10-31T18:07:43.254Z,3.80
2022-10-31T18:09:15.036Z,3.37
2022-10-31T18:10:46.439Z,3.66
2022-10-31T18:12:17.890Z,3.65
2022-10-31T18:13:51.641Z,3.61
2022-10-31T18:15:24.313Z,4.01
2022-10-31T18:16:57.661Z,3.89
2022-10-31T18:18:30.483Z,3.74
2022-10-31T18:20:03.412Z,3.92
2022-10-31T18:21:35.836Z,3.94
2022-10-31T18:23:07.951Z,3.62
2022-10-31T18:24:40.700Z,3.58
2022-10-31T18:26:13.124Z,3.75
2022-10-31T18:27:45.762Z,3.81
2022-10-31T18:29:19.625Z,3.46
2022-10-31T18:30:52.691Z,3.69
2022-10-31T18:32:25.223Z,3.91
2022-10-31T18:33:57.584Z,3.46
2022-10-31T18:35:30.076Z,3.76
2022-10-31T18:37:03.742Z,3.58
2022-10-31T18:38:36.127Z,3.48
2022-10-31T18:40:08.822Z,3.60
2022-10-31T18:41:43.126Z,3.87
2022-10-31T18:43:15.563Z,3.57
2022-10-31T18:44:47.964Z,3.49
2022-10-31T18:46:20.447Z,3.57
2022-10-31T18:47:53.714Z,3.49
2022-10-31T18:49:25.914Z,3.56
2022-10-31T18:50:59.216Z,4.15
2022-10-31T18:52:31.831Z,4.30
2022-10-31T18:54:05.002Z,3.71
2022-10-31T18:55:38.345Z,3.65
2022-10-31T18:57:10.504Z,3.59
2022-10-31T18:58:43.956Z,3.40
2022-10-31T19:00:16.290Z,3.42
2022-10-31T19:01:49.497Z,3.29
2022-10-31T19:03:25.987Z,3.37
2022-10-31T19:04:59.311Z,3.34
2022-10-31T19:06:31.651Z,3.72
2022-10-31T19:08:05.702Z,3.43
2022-10-31T19:10:02.084Z,4.30
2022-10-31T19:11:33.433Z,3.83
2022-10-31T19:13:04.896Z,4.03
2022-10-31T19:14:36.334Z,3.79
2022-10-31T19:16:07.923Z,3.83
2022-10-31T19:17:39.271Z,3.40
2022-10-31T19:19:10.883Z,3.75
2022-10-31T19:20:42.501Z,3.47
2022-10-31T19:22:13.825Z,4.05
2022-10-31T19:23:45.269Z,3.60
2022-10-31T19:25:17.111Z,3.69
2022-10-31T19:26:48.653Z,3.55
2022-10-31T19:28:20.381Z,4.71
2022-10-31T19:29:52.003Z,3.62
2022-10-31T19:31:23.556Z,3.73
2022-10-31T19:32:55.012Z,3.57
2022-10-31T19:34:26.506Z,3.57
2022-10-31T19:36:07.978Z,3.92
2022-10-31T19:37:39.353Z,3.80
2022-10-31T19:39:10.667Z,3.83
2022-10-31T19:40:42.503Z,3.56
2022-10-31T19:42:19.168Z,4.02
2022-10-31T19:43:50.734Z,4.08
2022-10-31T19:45:22.203Z,3.68
2022-10-31T19:46:54.344Z,3.82
2022-10-31T19:48:25.865Z,4.33
2022-10-31T19:49:57.321Z,3.61
2022-10-31T19:51:28.739Z,4.04
2022-10-31T19:53:00.173Z,4.21
2022-10-31T19:54:31.623Z,4.10
2022-10-31T19:56:03.120Z,3.81
2022-10-31T19:58:00.399Z,3.88
2022-10-31T19:59:38.170Z,3.66
2022-10-31T20:01:10.811Z,4.48
2022-10-31T20:02:42.344Z,4.10
2022-10-31T20:04:13.655Z,3.55
2022-10-31T20:05:45.143Z,3.92
2022-10-31T20:07:16.765Z,4.09
2022-10-31T20:08:48.093Z,3.49
2022-10-31T20:10:19.444Z,3.67
2022-10-31T20:11:50.953Z,3.69
2022-10-31T20:13:22.485Z,3.80
2022-10-31T20:14:54.080Z,3.50
2022-10-31T20:16:25.671Z,3.70
2022-10-31T20:17:57.067Z,3.71
2022-10-31T20:19:28.754Z,3.71
2022-10-31T20:21:04.614Z,3.88
2022-10-31T20:22:36.512Z,3.75
2022-10-31T20:24:07.890Z,3.47
2022-10-31T20:25:39.274Z,3.57
2022-10-31T20:27:10.700Z,4.01
2022-10-31T20:28:43.707Z,3.76
2022-10-31T20:30:15.190Z,3.74
2022-10-31T20:31:46.690Z,3.73
2022-10-31T20:33:18.233Z,4.11